Terminal Aerodrome Forecast
Issued by NWS North Platte, NE

Home | Current Version | Previous Version | Text Only | Print | Product List | Glossary On
Versions: 1 2 3 4 5 6 7 8 9 10 11 12 13 14 15
821
FTUS43 KLBF 061720
TAFVTN
TAF
KVTN 061720Z 0618/0718 23014G20KT P6SM BKN250
     FM062100 18009KT P6SM SCT250
     FM070100 11008KT P6SM BKN250
     FM070300 03012KT P6SM BKN150
     FM071400 06012G18KT P6SM BKN040=

USA.gov is the U.S. government's official web portal to all federal, state and local government web resources and services.